Terminal Aerodrome Forecast
Issued by NWS

Home | Current Version | Previous Version | Text Only | Print | Product List | Glossary On
Versions: 1 2 3 4 5 6 7 8 9 10 11 12 13 14 15 16 17 18
000
FTUS43 KMQT 240537
TAFIWD
TAF
KIWD 240537Z 2406/2506 03004KT P6SM SCT030 OVC150
     FM240700 03007KT P6SM OVC030
      TEMPO 2407/2409 SCT030 OVC060
     FM240900 04009KT P6SM VCSH OVC015
     FM241200 05011G21KT 6SM -SN OVC010
     FM241400 05016G28KT 4SM -SN BLSN OVC010
     FM241800 04019G31KT 1 1/2SM -SN BLSN VV010
     FM250000 02017G32KT 2SM -SHSN BLSN VV010=

USA.gov is the U.S. government's official web portal to all federal, state and local government web resources and services.